Time;durP1;ratioP1;P1;durP2;ratioP2;P2;SDS_P1;SDS_P2;PMS_P1;PMS_P2;Temp;Humidity;BMP_temperature;BMP_pressure;BME280_temperature;BME280_humidity;BME280_pressure;Samples;Min_cycle;Max_cycle;Signal;HPM_P1;HPM_P2
2021/03/07 00:01:06;;;;;;;2.57;2.23;;;3.00;99.90;;;;;;4978314;28;20195;-78
2021/03/07 00:03:32;;;;;;;2.47;1.57;;;3.00;99.90;;;;;;4979559;28;20212;-77
2021/03/07 00:05:57;;;;;;;6.17;2.60;;;3.00;99.90;;;;;;4978477;28;20720;-77
2021/03/07 00:08:23;;;;;;;2.47;2.27;;;3.00;99.90;;;;;;4977468;28;20556;-78
2021/03/07 00:10:49;;;;;;;2.50;2.07;;;2.90;99.90;;;;;;4993801;28;20223;-79
2021/03/07 00:13:14;;;;;;;3.43;2.27;;;3.00;99.90;;;;;;4978495;28;20686;-78
2021/03/07 00:15:40;;;;;;;2.50;1.93;;;2.90;99.90;;;;;;4980495;28;20275;-79
2021/03/07 00:18:06;;;;;;;3.37;2.53;;;2.80;99.90;;;;;;4993986;28;20193;-78
2021/03/07 00:20:32;;;;;;;2.60;2.33;;;2.90;99.90;;;;;;4977985;28;21115;-78
2021/03/07 00:22:57;;;;;;;3.40;2.63;;;3.00;99.90;;;;;;4980793;28;20824;-77
2021/03/07 00:25:23;;;;;;;3.50;2.87;;;2.90;99.90;;;;;;4979035;28;20180;-79
2021/03/07 00:27:49;;;;;;;3.80;2.80;;;2.80;99.90;;;;;;4977475;28;20844;-78
2021/03/07 00:30:16;;;;;;;3.47;2.63;;;2.70;99.90;;;;;;4980339;28;20191;-77
2021/03/07 00:32:43;;;;;;;3.57;2.90;;;2.60;99.90;;;;;;4991826;28;20220;-78
2021/03/07 00:35:10;;;;;;;4.53;3.17;;;2.50;99.90;;;;;;4977358;28;20685;-78
2021/03/07 00:37:36;;;;;;;3.40;2.10;;;2.40;99.90;;;;;;4979272;28;20267;-78
2021/03/07 00:40:02;;;;;;;2.53;1.63;;;2.30;99.90;;;;;;5009789;28;20790;-78
2021/03/07 00:42:28;;;;;;;2.57;1.90;;;2.20;99.90;;;;;;4977135;28;20204;-78
2021/03/07 00:44:53;;;;;;;3.57;2.20;;;2.10;99.90;;;;;;4993959;28;20188;-78
2021/03/07 00:47:19;;;;;;;2.33;1.80;;;2.10;99.90;;;;;;4978252;28;20244;-78
2021/03/07 00:49:45;;;;;;;2.07;1.87;;;2.00;99.90;;;;;;4976391;28;20220;-78
2021/03/07 00:52:11;;;;;;;1.70;1.60;;;1.90;99.90;;;;;;4976742;28;20212;-76
2021/03/07 00:54:36;;;;;;;4.40;2.03;;;1.80;99.90;;;;;;4976924;28;20189;-78
2021/03/07 00:57:02;;;;;;;2.87;2.03;;;1.70;99.90;;;;;;4977350;28;20199;-78
2021/03/07 00:59:28;;;;;;;1.53;1.43;;;1.50;99.90;;;;;;4977432;28;20263;-78
2021/03/07 01:01:53;;;;;;;2.27;1.87;;;1.40;99.90;;;;;;4977688;28;20240;-77
2021/03/07 01:04:19;;;;;;;2.97;2.67;;;1.30;99.90;;;;;;4977926;28;20184;-78
2021/03/07 01:06:45;;;;;;;2.17;1.97;;;1.20;99.90;;;;;;4976775;28;20185;-78
2021/03/07 01:09:11;;;;;;;2.10;1.90;;;1.10;99.90;;;;;;4978975;28;20180;-78
2021/03/07 01:11:36;;;;;;;2.40;1.93;;;1.10;99.90;;;;;;4977052;28;20181;-77
2021/03/07 01:14:04;;;;;;;2.30;2.10;;;1.10;99.90;;;;;;4978075;28;20213;-77
2021/03/07 01:16:29;;;;;;;3.67;2.50;;;1.00;99.90;;;;;;4978540;28;20195;-78
2021/03/07 01:18:55;;;;;;;2.90;2.10;;;1.00;99.90;;;;;;4978057;28;20193;-78
2021/03/07 01:21:21;;;;;;;2.83;2.00;;;1.00;99.90;;;;;;4978202;28;20199;-77
2021/03/07 01:23:47;;;;;;;4.23;2.77;;;0.90;99.90;;;;;;4975895;28;20216;-79
2021/03/07 01:26:12;;;;;;;4.30;2.60;;;0.90;99.90;;;;;;4977320;28;20229;-77
2021/03/07 01:28:38;;;;;;;4.13;2.37;;;0.80;99.90;;;;;;4975665;28;20776;-78
2021/03/07 01:31:04;;;;;;;4.20;2.97;;;0.90;99.90;;;;;;4977892;28;20196;-78
2021/03/07 01:33:29;;;;;;;3.03;2.20;;;0.90;99.90;;;;;;4976683;28;20231;-78
2021/03/07 01:35:55;;;;;;;2.43;2.00;;;0.90;99.90;;;;;;4977979;28;20279;-77
2021/03/07 01:38:21;;;;;;;3.23;2.20;;;0.90;99.90;;;;;;4978499;28;20261;-79
2021/03/07 01:40:51;;;;;;;3.90;3.03;;;1.00;99.90;;;;;;4977359;28;20203;-78
2021/03/07 01:43:19;;;;;;;3.67;2.77;;;1.10;99.90;;;;;;4978414;28;20216;-78
2021/03/07 01:45:45;;;;;;;5.23;2.57;;;1.10;99.90;;;;;;4977991;28;20811;-77
2021/03/07 01:48:13;;;;;;;2.83;2.37;;;1.10;99.90;;;;;;4976770;28;20199;-79
2021/03/07 01:50:43;;;;;;;5.43;3.53;;;1.20;99.90;;;;;;4976674;28;20220;-77
2021/03/07 01:53:09;;;;;;;3.07;2.47;;;1.20;99.90;;;;;;4974633;28;20212;-77
2021/03/07 01:55:37;;;;;;;3.97;3.43;;;1.20;99.90;;;;;;4975924;28;20669;-78
2021/03/07 01:58:18;;;;;;;3.10;2.47;;;1.20;99.90;;;;;;4974736;28;20188;-77
2021/03/07 02:00:44;;;;;;;2.90;2.60;;;1.20;99.90;;;;;;4975079;28;20188;-78
2021/03/07 02:03:09;;;;;;;4.50;2.87;;;1.20;99.90;;;;;;4974996;28;20232;-78
2021/03/07 02:05:36;;;;;;;3.33;2.73;;;1.20;99.90;;;;;;4976757;28;20577;-78
2021/03/07 02:08:03;;;;;;;3.67;2.93;;;1.10;99.90;;;;;;4992522;28;20208;-78
2021/03/07 02:10:32;;;;;;;4.33;3.03;;;1.10;99.90;;;;;;5008910;28;20654;-79
2021/03/07 02:13:10;;;;;;;4.40;3.20;;;1.10;99.90;;;;;;4989366;28;20217;-77
2021/03/07 02:15:37;;;;;;;5.60;3.97;;;1.00;99.90;;;;;;4973994;28;20187;-77
2021/03/07 02:18:03;;;;;;;5.00;3.47;;;1.10;99.90;;;;;;4975922;28;20636;-77
2021/03/07 02:20:32;;;;;;;5.43;3.77;;;1.10;99.90;;;;;;4977251;28;20189;-77
2021/03/07 02:23:13;;;;;;;6.17;3.53;;;1.10;99.90;;;;;;4974371;28;20211;-76
2021/03/07 02:25:39;;;;;;;5.30;3.60;;;1.10;99.90;;;;;;4977191;28;20194;-77
2021/03/07 02:28:07;;;;;;;7.50;4.07;;;1.10;99.90;;;;;;4975496;28;20189;-77
2021/03/07 02:30:34;;;;;;;10.07;4.53;;;1.10;99.90;;;;;;4975235;28;20197;-78
2021/03/07 02:33:14;;;;;;;7.43;4.60;;;1.20;99.90;;;;;;4973931;28;20688;-77
2021/03/07 02:35:45;;;;;;;7.10;4.57;;;1.20;99.90;;;;;;4976850;28;20188;-78
2021/03/07 02:38:13;;;;;;;8.70;4.10;;;1.20;99.90;;;;;;4975338;28;20191;-77
2021/03/07 02:40:39;;;;;;;6.37;3.67;;;1.20;99.90;;;;;;4975299;28;20579;-78
2021/03/07 02:43:09;;;;;;;8.73;4.60;;;1.30;99.90;;;;;;4974933;28;20221;-78
2021/03/07 02:45:35;;;;;;;5.50;2.83;;;1.30;99.90;;;;;;4973432;28;20196;-78
2021/03/07 02:48:01;;;;;;;5.63;3.50;;;1.50;99.90;;;;;;4977076;28;20188;-79
2021/03/07 02:50:30;;;;;;;5.97;2.43;;;1.40;99.90;;;;;;4976179;28;21163;-78
2021/03/07 02:53:12;;;;;;;4.53;3.63;;;1.50;99.90;;;;;;4977652;28;20213;-76
2021/03/07 02:55:40;;;;;;;3.83;2.93;;;1.50;99.90;;;;;;4991557;28;20223;-79
2021/03/07 02:58:11;;;;;;;4.10;3.30;;;1.50;99.90;;;;;;4973322;28;20192;-78
2021/03/07 03:00:38;;;;;;;4.13;3.13;;;1.50;99.90;;;;;;4975152;28;20193;-78
2021/03/07 03:03:11;;;;;;;3.83;3.27;;;1.50;99.90;;;;;;4975453;28;20217;-79
2021/03/07 03:05:38;;;;;;;4.17;3.27;;;1.50;99.90;;;;;;4990599;28;20565;-79
2021/03/07 03:08:05;;;;;;;3.30;2.97;;;1.50;99.90;;;;;;5007053;28;20623;-80
2021/03/07 03:10:32;;;;;;;2.77;2.10;;;1.60;99.90;;;;;;4974774;28;20189;-78
2021/03/07 03:13:00;;;;;;;2.57;2.07;;;1.60;99.90;;;;;;4974485;28;20208;-77
2021/03/07 03:15:26;;;;;;;3.03;2.17;;;1.70;99.90;;;;;;4974532;28;20185;-77
2021/03/07 03:17:53;;;;;;;2.13;1.93;;;1.70;99.90;;;;;;4976328;28;20749;-77
2021/03/07 03:20:20;;;;;;;2.40;2.20;;;1.70;99.90;;;;;;5006371;28;20188;-77
2021/03/07 03:22:47;;;;;;;2.20;1.50;;;1.70;99.90;;;;;;4975146;28;20583;-79
2021/03/07 03:25:14;;;;;;;3.43;1.50;;;1.70;99.90;;;;;;4973585;28;20192;-78
2021/03/07 03:27:39;;;;;;;2.40;1.43;;;1.70;99.90;;;;;;4973276;28;21042;-78
2021/03/07 03:30:11;;;;;;;3.00;2.43;;;1.70;99.90;;;;;;4974915;28;20189;-78
2021/03/07 03:32:38;;;;;;;1.60;1.50;;;1.70;99.90;;;;;;4972636;28;20263;-78
2021/03/07 03:35:15;;;;;;;1.80;1.70;;;1.80;99.90;;;;;;4975997;28;20195;-79
2021/03/07 03:37:42;;;;;;;1.70;1.60;;;1.70;99.90;;;;;;4976593;28;20276;-79
2021/03/07 03:40:12;;;;;;;2.50;1.67;;;1.80;99.90;;;;;;4974986;28;20204;-78
2021/03/07 03:42:42;;;;;;;2.07;1.40;;;1.80;99.90;;;;;;5006834;28;20216;-77
2021/03/07 03:45:09;;;;;;;1.90;1.60;;;1.70;99.90;;;;;;4976156;28;20243;-77
2021/03/07 03:47:43;;;;;;;1.40;1.30;;;1.70;99.90;;;;;;4977990;28;20189;-77
2021/03/07 03:50:11;;;;;;;1.43;1.10;;;1.70;99.90;;;;;;4982447;28;20212;-77
2021/03/07 03:52:38;;;;;;;2.23;1.47;;;1.70;99.90;;;;;;4978118;28;20261;-77
2021/03/07 03:55:05;;;;;;;3.40;2.00;;;1.80;99.90;;;;;;4978804;28;20201;-80
2021/03/07 03:57:33;;;;;;;2.17;1.50;;;1.80;99.90;;;;;;4978469;28;20180;-78
2021/03/07 04:00:06;;;;;;;1.80;1.43;;;1.80;99.90;;;;;;4978003;28;20311;-78
2021/03/07 04:02:34;;;;;;;3.03;1.40;;;1.80;99.90;;;;;;4977725;28;20220;-79
2021/03/07 04:05:05;;;;;;;2.10;1.70;;;1.90;99.90;;;;;;4977683;28;20184;-79
2021/03/07 04:07:31;;;;;;;2.63;1.53;;;1.80;99.90;;;;;;4991505;28;20664;-81
2021/03/07 04:09:59;;;;;;;2.07;1.80;;;1.80;99.90;;;;;;4979164;28;20197;-79
2021/03/07 04:12:25;;;;;;;1.40;1.30;;;1.90;99.90;;;;;;4980984;28;20609;-78
2021/03/07 04:14:56;;;;;;;2.00;1.73;;;1.90;99.90;;;;;;4976787;28;20353;-77
2021/03/07 04:17:24;;;;;;;1.73;1.63;;;1.80;99.90;;;;;;4980333;28;20196;-81
2021/03/07 04:19:51;;;;;;;2.23;1.50;;;1.80;99.90;;;;;;4973772;28;20227;-77
2021/03/07 04:22:18;;;;;;;2.50;1.93;;;1.80;99.90;;;;;;4976546;28;20217;-78
2021/03/07 04:24:44;;;;;;;2.77;2.33;;;2.00;99.90;;;;;;5009680;28;20188;-79
2021/03/07 04:27:10;;;;;;;1.70;1.60;;;2.00;99.90;;;;;;4983571;28;20193;-77
2021/03/07 04:29:38;;;;;;;2.10;1.90;;;2.00;99.90;;;;;;4976365;28;20185;-80
2021/03/07 04:32:08;;;;;;;2.50;1.90;;;2.00;99.90;;;;;;4981277;28;20184;-78
2021/03/07 04:34:35;;;;;;;2.00;1.90;;;2.00;99.90;;;;;;4983059;28;20693;-78
2021/03/07 04:37:02;;;;;;;3.30;2.20;;;2.00;99.90;;;;;;4982796;28;20193;-78
2021/03/07 04:39:28;;;;;;;2.43;2.20;;;1.90;99.90;;;;;;4980867;28;20267;-82
2021/03/07 04:41:54;;;;;;;2.33;2.10;;;1.90;99.90;;;;;;4982940;28;20268;-79
2021/03/07 04:44:19;;;;;;;6.23;2.77;;;1.90;99.90;;;;;;4981341;28;20674;-77
2021/03/07 04:46:45;;;;;;;2.03;1.70;;;1.80;99.90;;;;;;4993665;28;20666;-77
2021/03/07 04:49:11;;;;;;;1.93;1.73;;;1.80;99.90;;;;;;4979716;28;20192;-77
2021/03/07 04:51:36;;;;;;;2.50;2.17;;;1.80;99.90;;;;;;4980350;28;20197;-79
2021/03/07 04:54:03;;;;;;;2.07;1.87;;;1.80;99.90;;;;;;4982441;28;20722;-77
2021/03/07 04:56:30;;;;;;;2.57;2.27;;;1.80;99.90;;;;;;4981783;28;20212;-78
2021/03/07 04:58:56;;;;;;;3.00;2.70;;;1.80;99.90;;;;;;4983717;28;20190;-79
2021/03/07 05:01:22;;;;;;;2.33;2.13;;;1.70;99.90;;;;;;4980645;28;21151;-78
2021/03/07 05:03:47;;;;;;;3.10;2.47;;;1.70;99.90;;;;;;4978938;28;20227;-79
2021/03/07 05:06:13;;;;;;;2.07;1.87;;;1.70;99.90;;;;;;4981830;28;20189;-78
2021/03/07 05:08:40;;;;;;;8.30;2.90;;;1.70;99.90;;;;;;4980982;28;20185;-81
2021/03/07 05:11:06;;;;;;;8.30;2.47;;;1.70;99.90;;;;;;4979578;28;20244;-80
2021/03/07 05:13:32;;;;;;;2.67;2.40;;;1.80;99.90;;;;;;4981835;28;20228;-78
2021/03/07 05:15:58;;;;;;;3.43;2.47;;;1.80;99.90;;;;;;4996474;28;20267;-79
2021/03/07 05:18:23;;;;;;;3.73;2.03;;;1.80;99.90;;;;;;4995045;28;20196;-77
2021/03/07 05:20:49;;;;;;;4.80;2.23;;;1.80;99.90;;;;;;4979951;28;20295;-78
2021/03/07 05:23:15;;;;;;;2.30;1.87;;;1.80;99.90;;;;;;4981493;28;20204;-79
2021/03/07 05:25:41;;;;;;;2.67;2.07;;;1.80;99.90;;;;;;4979288;28;20189;-78
2021/03/07 05:28:07;;;;;;;3.40;2.33;;;1.80;99.90;;;;;;4980566;28;20244;-77
2021/03/07 05:30:33;;;;;;;1.97;1.73;;;1.70;99.90;;;;;;4980280;28;20191;-78
2021/03/07 05:32:59;;;;;;;1.90;1.50;;;1.80;99.90;;;;;;4979216;28;20756;-78
2021/03/07 05:35:25;;;;;;;1.73;1.43;;;1.80;99.90;;;;;;4982603;28;20181;-79
2021/03/07 05:37:50;;;;;;;2.03;1.80;;;1.70;99.90;;;;;;4980286;28;20305;-78
2021/03/07 05:40:16;;;;;;;1.10;1.00;;;1.70;99.90;;;;;;4993828;28;20693;-77
2021/03/07 05:42:42;;;;;;;1.67;1.57;;;1.70;99.90;;;;;;4978492;28;20216;-79
2021/03/07 05:45:09;;;;;;;1.03;0.97;;;1.70;99.90;;;;;;4978868;28;20185;-77
2021/03/07 05:47:35;;;;;;;1.83;1.57;;;1.70;99.90;;;;;;4994111;28;20536;-77
2021/03/07 05:50:00;;;;;;;1.83;1.50;;;1.80;99.90;;;;;;4978098;28;20188;-78
2021/03/07 05:52:26;;;;;;;1.50;1.40;;;1.80;99.90;;;;;;4978794;28;20232;-78
2021/03/07 05:54:52;;;;;;;1.60;1.50;;;1.70;99.90;;;;;;4977537;28;20190;-77
2021/03/07 05:57:23;;;;;;;1.50;1.03;;;1.70;99.90;;;;;;4977571;28;20188;-77
2021/03/07 05:59:50;;;;;;;1.53;1.33;;;1.70;99.90;;;;;;4991268;28;20188;-77
2021/03/07 06:02:16;;;;;;;1.13;1.00;;;1.70;99.90;;;;;;4977228;28;20627;-79
2021/03/07 06:04:50;;;;;;;6.83;2.03;;;1.70;99.90;;;;;;4973730;28;20236;-80
2021/03/07 06:07:16;;;;;;;1.83;1.47;;;1.70;99.90;;;;;;4979094;28;20208;-78
2021/03/07 06:09:41;;;;;;;1.20;1.03;;;1.70;99.90;;;;;;4976039;28;20255;-80
2021/03/07 06:12:18;;;;;;;1.47;1.03;;;1.70;99.90;;;;;;4992535;28;20216;-78
2021/03/07 06:14:45;;;;;;;0.87;0.87;;;1.70;99.90;;;;;;4978524;28;20197;-77
2021/03/07 06:17:13;;;;;;;1.47;0.90;;;1.70;99.90;;;;;;4975546;28;20189;-78
2021/03/07 06:19:57;;;;;;;1.30;1.20;;;1.60;99.90;;;;;;4976743;28;20574;-79
2021/03/07 06:22:23;;;;;;;1.73;1.00;;;1.80;99.90;;;;;;4977882;28;20235;-80
2021/03/07 06:24:49;;;;;;;1.00;0.90;;;1.80;99.90;;;;;;4979585;28;20180;-79
2021/03/07 06:27:19;;;;;;;3.60;1.13;;;1.80;99.90;;;;;;4979365;28;20264;-80
2021/03/07 06:29:58;;;;;;;1.03;0.93;;;1.90;99.90;;;;;;4980367;28;20179;-79
2021/03/07 06:32:29;;;;;;;1.60;1.00;;;2.00;99.90;;;;;;4977490;28;20371;-80
2021/03/07 06:34:55;;;;;;;1.30;1.13;;;2.00;99.90;;;;;;4978503;28;20184;-79
2021/03/07 06:37:21;;;;;;;1.30;1.10;;;2.00;99.90;;;;;;4975779;28;20191;-78
2021/03/07 06:39:47;;;;;;;1.33;1.17;;;2.00;99.90;;;;;;4976624;28;20192;-79
2021/03/07 06:42:14;;;;;;;1.20;1.10;;;2.20;99.90;;;;;;4974542;28;20220;-79
2021/03/07 06:44:54;;;;;;;1.43;1.33;;;2.30;99.90;;;;;;4976163;28;20198;-78
2021/03/07 06:47:20;;;;;;;3.00;1.40;;;2.30;99.90;;;;;;4974797;28;20204;-77
2021/03/07 06:49:46;;;;;;;0.90;0.80;;;2.30;99.90;;;;;;4976179;28;20197;-78
2021/03/07 06:52:17;;;;;;;1.07;1.00;;;2.30;99.90;;;;;;4978466;28;20691;-77
2021/03/07 06:54:45;;;;;;;1.40;1.03;;;2.30;99.90;;;;;;5010781;28;20203;-78
2021/03/07 06:57:11;;;;;;;1.10;0.90;;;2.40;99.90;;;;;;4977676;28;20184;-80
2021/03/07 06:59:37;;;;;;;0.90;0.90;;;2.40;99.90;;;;;;4993573;28;20678;-78
2021/03/07 07:02:11;;;;;;;1.73;1.30;;;2.40;99.90;;;;;;4996190;28;20189;-78
2021/03/07 07:04:41;;;;;;;1.33;1.23;;;2.50;99.90;;;;;;4981211;28;20177;-80
2021/03/07 07:07:12;;;;;;;1.97;1.70;;;2.40;99.90;;;;;;5009100;28;20176;-78
2021/03/07 07:09:37;;;;;;;1.60;1.47;;;2.50;99.90;;;;;;4977546;28;20189;-79
2021/03/07 07:12:06;;;;;;;1.63;1.00;;;2.60;99.90;;;;;;4975106;28;20184;-77
2021/03/07 07:14:42;;;;;;;2.07;1.00;;;2.70;99.90;;;;;;4977482;28;20195;-79
2021/03/07 07:17:19;;;;;;;1.20;1.07;;;2.70;99.90;;;;;;4979886;28;20173;-80
2021/03/07 07:19:46;;;;;;;1.20;1.07;;;2.90;99.90;;;;;;4993417;28;20184;-80
2021/03/07 07:22:14;;;;;;;0.50;0.50;;;2.90;99.90;;;;;;4978548;28;20224;-80
2021/03/07 07:24:40;;;;;;;1.50;1.17;;;3.00;99.90;;;;;;4991409;28;20181;-80
2021/03/07 07:27:06;;;;;;;1.10;1.00;;;3.00;99.90;;;;;;4978017;28;20176;-79
2021/03/07 07:29:34;;;;;;;1.37;1.27;;;3.10;99.90;;;;;;4978382;28;20231;-79
2021/03/07 07:32:08;;;;;;;2.53;1.33;;;3.10;99.90;;;;;;4992223;28;20607;-80
2021/03/07 07:34:46;;;;;;;2.43;1.30;;;3.10;99.90;;;;;;4973930;28;20180;-79
2021/03/07 07:37:24;;;;;;;0.93;0.83;;;3.20;99.90;;;;;;4991982;28;20180;-79
2021/03/07 07:39:54;;;;;;;1.30;1.20;;;3.20;99.90;;;;;;4976520;28;20983;-79
2021/03/07 07:42:23;;;;;;;0.77;0.77;;;3.20;99.90;;;;;;4977962;28;20208;-79
2021/03/07 07:44:49;;;;;;;1.37;1.20;;;3.30;99.90;;;;;;4977357;28;20207;-81
2021/03/07 07:47:15;;;;;;;1.37;1.27;;;3.30;99.90;;;;;;4977546;28;20659;-81
2021/03/07 07:49:48;;;;;;;1.30;1.20;;;3.30;99.90;;;;;;4978598;28;20300;-80
2021/03/07 07:52:26;;;;;;;2.97;1.17;;;3.20;99.90;;;;;;4992656;28;20757;-80
2021/03/07 07:54:54;;;;;;;0.77;0.77;;;3.30;99.90;;;;;;4978653;28;20235;-81
2021/03/07 07:57:41;;;;;;;0.87;0.73;;;3.30;99.90;;;;;;5008453;28;20176;-81
2021/03/07 08:00:18;;;;;;;0.70;0.70;;;3.30;99.90;;;;;;4979454;28;20185;-81
2021/03/07 08:02:44;;;;;;;1.77;0.90;;;3.50;99.90;;;;;;4977856;28;20379;-81
2021/03/07 08:05:22;;;;;;;0.53;0.53;;;3.50;99.90;;;;;;4977022;28;20272;-78
2021/03/07 08:08:01;;;;;;;2.93;1.17;;;3.70;99.90;;;;;;4979917;28;20204;-80
2021/03/07 08:10:41;;;;;;;1.40;1.10;;;3.60;99.90;;;;;;4981456;28;20702;-80
2021/03/07 08:13:34;;;;;;;1.73;1.00;;;3.60;99.90;;;;;;5011492;28;20200;-79
2021/03/07 08:16:01;;;;;;;2.13;1.37;;;3.60;99.90;;;;;;4975713;28;20201;-80
2021/03/07 08:18:50;;;;;;;1.87;1.10;;;3.60;99.90;;;;;;4981458;28;20664;-80
2021/03/07 08:21:17;;;;;;;1.53;1.43;;;3.60;99.90;;;;;;4980626;28;20271;-78
2021/03/07 08:23:55;;;;;;;1.10;0.60;;;3.60;99.90;;;;;;4983458;28;20240;-78
2021/03/07 08:26:21;;;;;;;1.43;0.97;;;3.70;99.90;;;;;;5014521;28;20252;-80
2021/03/07 08:28:47;;;;;;;0.97;0.80;;;3.80;99.90;;;;;;4981365;28;20223;-78
2021/03/07 08:31:15;;;;;;;0.80;0.73;;;3.80;99.90;;;;;;4983313;28;20651;-78
2021/03/07 08:33:42;;;;;;;3.23;1.00;;;3.90;99.90;;;;;;4982406;28;20239;-81
2021/03/07 08:36:17;;;;;;;1.00;0.90;;;3.90;99.90;;;;;;4983894;28;20188;-80
2021/03/07 08:38:54;;;;;;;3.33;1.70;;;4.10;99.90;;;;;;4983559;28;20891;-81
2021/03/07 08:41:21;;;;;;;1.83;0.80;;;4.00;99.90;;;;;;4982613;28;20176;-78
2021/03/07 08:43:49;;;;;;;1.67;0.90;;;4.10;99.90;;;;;;4983253;28;20215;-79
2021/03/07 08:46:23;;;;;;;0.87;0.80;;;4.00;99.90;;;;;;4983634;28;20732;-79
2021/03/07 08:48:52;;;;;;;1.03;0.93;;;4.10;99.90;;;;;;4982203;28;20189;-81
2021/03/07 08:51:19;;;;;;;1.03;0.87;;;4.00;99.90;;;;;;4980982;28;20200;-79
2021/03/07 08:53:46;;;;;;;0.70;0.70;;;3.90;99.90;;;;;;4983852;28;20254;-78
2021/03/07 08:56:13;;;;;;;0.90;0.77;;;4.00;99.90;;;;;;4984726;28;20706;-80
2021/03/07 08:58:39;;;;;;;0.90;0.80;;;4.20;99.90;;;;;;4981515;28;20195;-79
2021/03/07 09:01:11;;;;;;;1.87;1.53;;;4.00;99.90;;;;;;4983084;28;20536;-81
2021/03/07 09:03:36;;;;;;;1.03;0.80;;;4.10;99.90;;;;;;4982081;28;20614;-78
2021/03/07 09:06:12;;;;;;;1.23;0.80;;;4.20;99.90;;;;;;4978453;28;20284;-79
2021/03/07 09:08:38;;;;;;;1.13;0.97;;;4.00;99.90;;;;;;4979399;28;20534;-78
2021/03/07 09:11:08;;;;;;;1.20;1.10;;;3.90;99.90;;;;;;4978614;28;20192;-79
2021/03/07 09:13:33;;;;;;;2.13;1.13;;;4.00;99.90;;;;;;4994434;28;20239;-77
2021/03/07 09:16:02;;;;;;;2.77;1.63;;;4.10;99.90;;;;;;4979563;28;20185;-80
2021/03/07 09:18:30;;;;;;;1.23;1.13;;;4.20;99.90;;;;;;4977003;28;20222;-78
2021/03/07 09:20:59;;;;;;;2.10;1.50;;;4.20;99.90;;;;;;4981434;28;20181;-81
2021/03/07 09:24:08;;;;;;;1.43;1.13;;;4.30;99.90;;;;;;4978518;28;20238;-79
2021/03/07 09:26:34;;;;;;;0.90;0.70;;;4.30;99.90;;;;;;4974022;28;20197;-77
2021/03/07 09:29:03;;;;;;;0.80;0.70;;;4.30;99.90;;;;;;4978945;28;20184;-80
2021/03/07 09:31:36;;;;;;;1.27;1.17;;;4.20;99.90;;;;;;4977134;28;20184;-79
2021/03/07 09:34:04;;;;;;;1.97;1.17;;;4.30;99.90;;;;;;4994667;28;20208;-79
2021/03/07 09:36:36;;;;;;;0.63;0.63;;;4.20;99.90;;;;;;4976771;28;20276;-78
2021/03/07 09:39:04;;;;;;;0.60;0.60;;;4.30;99.90;;;;;;4979279;28;20180;-79
2021/03/07 09:41:34;;;;;;;0.57;0.57;;;4.30;99.90;;;;;;4978346;28;20184;-79
2021/03/07 09:44:06;;;;;;;0.37;0.37;;;4.40;99.90;;;;;;4978911;28;20227;-80
2021/03/07 09:46:33;;;;;;;0.50;0.50;;;4.40;99.90;;;;;;4977608;28;20195;-80
2021/03/07 09:49:04;;;;;;;0.50;0.50;;;4.40;99.90;;;;;;4977880;28;20188;-79
2021/03/07 09:51:37;;;;;;;0.73;0.73;;;4.30;99.90;;;;;;5010088;28;20193;-79
2021/03/07 09:54:05;;;;;;;0.70;0.70;;;4.50;99.90;;;;;;4979826;28;20283;-80
2021/03/07 09:56:33;;;;;;;0.47;0.30;;;4.40;99.90;;;;;;4976928;28;20801;-79
2021/03/07 09:59:18;;;;;;;0.50;0.40;;;4.50;99.90;;;;;;4978352;28;20279;-80
2021/03/07 10:01:50;;;;;;;0.63;0.60;;;4.50;99.90;;;;;;4979360;28;20188;-79
2021/03/07 10:04:35;;;;;;;1.83;0.70;;;4.60;99.90;;;;;;4979481;28;20307;-80
2021/03/07 10:07:09;;;;;;;0.47;0.40;;;4.60;99.90;;;;;;4979019;28;20180;-80
2021/03/07 10:09:55;;;;;;;0.60;0.60;;;4.60;99.90;;;;;;4977921;28;20183;-80
2021/03/07 10:12:20;;;;;;;0.60;0.60;;;4.60;99.90;;;;;;4994245;28;20656;-80
2021/03/07 10:14:55;;;;;;;0.70;0.70;;;4.60;99.90;;;;;;4977733;28;20212;-80
2021/03/07 10:17:21;;;;;;;0.70;0.70;;;4.80;99.90;;;;;;5008301;28;20656;-82
2021/03/07 10:19:47;;;;;;;0.40;0.40;;;4.90;99.90;;;;;;4994908;28;20208;-80
2021/03/07 10:22:13;;;;;;;1.27;0.60;;;5.00;99.90;;;;;;4977209;28;20286;-78
2021/03/07 10:24:39;;;;;;;0.60;0.60;;;5.00;99.90;;;;;;4976498;28;20244;-79
2021/03/07 10:27:07;;;;;;;0.63;0.63;;;4.90;99.90;;;;;;4977715;28;20722;-80
2021/03/07 10:29:38;;;;;;;0.70;0.70;;;4.80;99.90;;;;;;5009059;28;20628;-81
2021/03/07 10:32:06;;;;;;;1.00;0.80;;;4.80;99.90;;;;;;4976435;28;20177;-80
2021/03/07 10:34:41;;;;;;;0.70;0.70;;;4.80;99.90;;;;;;4978938;28;20172;-79
2021/03/07 10:37:08;;;;;;;0.60;0.60;;;4.90;99.90;;;;;;4991958;28;20185;-78
2021/03/07 10:39:35;;;;;;;1.10;1.03;;;4.90;99.90;;;;;;4974458;28;20192;-78
2021/03/07 10:42:05;;;;;;;0.67;0.57;;;4.70;99.90;;;;;;4973456;28;20313;-78
2021/03/07 10:44:31;;;;;;;2.67;0.63;;;4.50;99.90;;;;;;4977093;28;20709;-80
2021/03/07 10:47:11;;;;;;;0.87;0.80;;;4.50;99.90;;;;;;4990362;28;20191;-79
2021/03/07 10:49:37;;;;;;;0.80;0.70;;;4.60;99.90;;;;;;4977729;28;20168;-78
2021/03/07 10:52:03;;;;;;;0.53;0.53;;;4.60;99.90;;;;;;4976581;28;20197;-80
2021/03/07 10:54:29;;;;;;;0.90;0.60;;;4.50;99.90;;;;;;4975993;28;20211;-79
2021/03/07 10:56:54;;;;;;;1.40;1.00;;;4.50;99.90;;;;;;4976245;28;20728;-79
2021/03/07 10:59:20;;;;;;;0.70;0.67;;;4.50;99.90;;;;;;4974319;28;20188;-79
2021/03/07 11:01:46;;;;;;;0.97;0.70;;;4.50;99.90;;;;;;4976416;28;20187;-79
2021/03/07 11:04:11;;;;;;;3.03;1.33;;;4.50;99.90;;;;;;4976818;28;20209;-78
2021/03/07 11:06:37;;;;;;;0.87;0.67;;;4.70;99.90;;;;;;4976487;28;20176;-78
2021/03/07 11:09:04;;;;;;;0.70;0.70;;;4.70;99.90;;;;;;4974858;28;20292;-79
2021/03/07 11:11:34;;;;;;;1.03;1.00;;;4.70;99.90;;;;;;4975380;28;20179;-78
2021/03/07 11:14:00;;;;;;;0.60;0.60;;;4.70;99.90;;;;;;4992162;28;20681;-79
2021/03/07 11:16:26;;;;;;;0.97;0.80;;;4.70;99.90;;;;;;4976532;28;20318;-80
2021/03/07 11:18:51;;;;;;;1.73;1.03;;;4.70;99.90;;;;;;4976207;28;20208;-80
2021/03/07 11:21:17;;;;;;;1.13;0.90;;;4.60;99.90;;;;;;4972555;28;20223;-80
2021/03/07 11:23:43;;;;;;;1.40;0.93;;;4.70;99.90;;;;;;4970876;28;20271;-81
2021/03/07 11:26:08;;;;;;;1.53;1.17;;;4.80;99.90;;;;;;4974894;28;20171;-77
2021/03/07 11:28:34;;;;;;;2.33;1.50;;;5.00;99.90;;;;;;4975643;28;20176;-79
2021/03/07 11:31:00;;;;;;;0.93;0.83;;;5.10;99.90;;;;;;4975769;28;20191;-79
2021/03/07 11:33:26;;;;;;;1.13;1.03;;;4.90;99.90;;;;;;4974226;28;20243;-79
2021/03/07 11:35:52;;;;;;;1.77;1.20;;;4.90;99.90;;;;;;4977682;28;20224;-78
2021/03/07 11:38:18;;;;;;;1.47;1.10;;;4.80;99.90;;;;;;4977332;28;20211;-80
2021/03/07 11:40:44;;;;;;;2.30;1.17;;;4.80;99.90;;;;;;4977384;28;20227;-79
2021/03/07 11:43:09;;;;;;;0.70;0.70;;;4.80;99.90;;;;;;4984356;28;20612;-78
2021/03/07 11:45:35;;;;;;;2.00;1.13;;;4.80;99.90;;;;;;4981691;28;20558;-79
2021/03/07 11:48:00;;;;;;;2.10;1.37;;;4.70;99.90;;;;;;4981502;28;20228;-78
2021/03/07 11:50:26;;;;;;;1.70;1.53;;;4.70;99.90;;;;;;4981908;28;20200;-78
2021/03/07 11:52:52;;;;;;;1.93;1.40;;;4.70;99.90;;;;;;4983870;28;20614;-79
2021/03/07 11:55:17;;;;;;;1.50;1.07;;;4.60;99.90;;;;;;4986500;28;20184;-78
2021/03/07 11:57:43;;;;;;;2.57;1.53;;;4.50;99.90;;;;;;4985585;28;20251;-78
2021/03/07 12:00:10;;;;;;;2.83;1.93;;;4.60;99.90;;;;;;4982201;28;20227;-78
2021/03/07 12:02:35;;;;;;;1.10;1.10;;;4.60;99.90;;;;;;5013067;28;20212;-79
2021/03/07 12:05:02;;;;;;;1.20;1.00;;;4.60;99.90;;;;;;4983991;28;20204;-79
2021/03/07 12:07:28;;;;;;;2.00;1.23;;;4.50;99.90;;;;;;4981912;28;20598;-78
2021/03/07 12:09:54;;;;;;;2.33;1.23;;;4.50;99.90;;;;;;4979998;28;20180;-79
2021/03/07 12:12:19;;;;;;;1.30;1.13;;;4.60;99.90;;;;;;4978581;28;20200;-80
2021/03/07 12:14:45;;;;;;;2.37;1.03;;;4.60;99.90;;;;;;4980092;28;20242;-78
2021/03/07 12:17:11;;;;;;;2.57;2.00;;;4.50;99.90;;;;;;4978241;28;20238;-80
2021/03/07 12:19:36;;;;;;;0.80;0.80;;;4.60;99.90;;;;;;4982468;28;20626;-79
2021/03/07 12:22:02;;;;;;;3.57;1.60;;;4.60;99.90;;;;;;4978766;28;20189;-80
2021/03/07 12:24:31;;;;;;;3.77;2.13;;;4.60;99.90;;;;;;4977681;28;20201;-78
2021/03/07 12:27:04;;;;;;;2.30;1.83;;;4.70;99.90;;;;;;4980405;28;20188;-77
2021/03/07 12:29:32;;;;;;;1.57;1.10;;;4.70;99.90;;;;;;4977408;28;20234;-80
2021/03/07 12:31:57;;;;;;;1.47;1.10;;;4.70;99.90;;;;;;4993088;28;20185;-80
2021/03/07 12:34:23;;;;;;;2.73;1.57;;;4.90;99.90;;;;;;4980754;28;20612;-80
2021/03/07 12:36:48;;;;;;;1.20;0.90;;;4.70;99.90;;;;;;4978696;28;20193;-76
2021/03/07 12:39:14;;;;;;;1.10;1.00;;;4.50;99.90;;;;;;4978073;28;20197;-79
2021/03/07 12:41:39;;;;;;;1.00;0.90;;;4.40;99.90;;;;;;4978731;28;20267;-79
2021/03/07 12:44:05;;;;;;;1.63;1.10;;;4.40;99.90;;;;;;4980629;28;20216;-80
2021/03/07 12:46:31;;;;;;;1.80;1.40;;;4.30;99.90;;;;;;4979003;28;20180;-78
2021/03/07 12:48:56;;;;;;;1.77;1.57;;;4.40;99.90;;;;;;4980997;28;20240;-79
2021/03/07 12:51:22;;;;;;;1.27;0.90;;;4.40;99.90;;;;;;4995470;28;20226;-79
2021/03/07 12:53:48;;;;;;;1.33;0.90;;;4.40;99.90;;;;;;4981336;28;20209;-78
2021/03/07 12:56:13;;;;;;;1.53;1.20;;;4.30;99.90;;;;;;4979255;28;20200;-79
2021/03/07 12:58:39;;;;;;;2.13;1.93;;;4.40;99.90;;;;;;4978808;28;20220;-77
2021/03/07 13:01:04;;;;;;;0.97;0.87;;;4.40;99.90;;;;;;4978512;28;20242;-78
2021/03/07 13:03:30;;;;;;;1.20;1.10;;;4.40;99.90;;;;;;4976872;28;20219;-78